LIBR Airport Information

Runway Information
Runway 05 Length 5892 ft width 148 ft
Elevation 46 ft Threshold ft Heading 53
Runway 23 Length 5892 ft Width 148 ft
Elevation 13 ft Threshold 230 ft Heading 233
Runway 13 Length 10000 ft width 148 ft
Elevation 29 ft Threshold ft Heading 137
Runway 31 Length 10000 ft Width 148 ft
Elevation 26 ft Threshold ft Heading 317
Airport Frequencies
Type APP Name BRINDISI A Frequency 118.4 MHZ
Type APP Name BRINDISI A Frequency 36.365 MHZ
Type GND Name GND Frequency 31.355 MHZ
Type TWR Name BRINDISI T Frequency 118.1 MHZ
Type ILS RWY 32 Name Frequency 109.5 MHZ
Airport Navaids
Type VORTAC Name Brindisi Frequency 113200 KHZ
Type NDB Name Brindisi Frequency 364 KHZ
Airport Weather Information & NOTAM
ADDS - METARS form results

(2207 UTC 04 December 2022)
Data provider http://aviationweather.gov/metar/data/
 
METAR text: LIBR 042150Z 25003KT 8000 MIFG NSC 10/09 Q1021
Conditions at: LIBR (BRINDISI/CASALE , IT) observed 2150 UTC 04 December 2022
Temperature: 10.0°C (50°F)
Dewpoint: 9.0°C (48°F) [RH = 93%]
Pressure (altimeter): 30.15 inches Hg (1021.0 mb)
Winds: from the WSW (250 degrees) at 3 MPH (3 knots; 1.5 m/s)
Visibility: 5 miles ( 8 km)
Ceiling: at least 12,000 feet AGL
Clouds: sky clear below 12,000 feet AGL
Weather: MIFG  (shallow fog)

METAR text: LIBR 042120Z 23002KT 8000 MIFG NSC 11/10 Q1021
Conditions at: LIBR (BRINDISI/CASALE , IT) observed 2120 UTC 04 December 2022
Temperature: 11.0°C (52°F)
Dewpoint: 10.0°C (50°F) [RH = 94%]
Pressure (altimeter): 30.15 inches Hg (1021.0 mb)
Winds: from the SW (230 degrees) at 2 MPH (2 knots; 1.0 m/s)
Visibility: 5 miles ( 8 km)
Ceiling: at least 12,000 feet AGL
Clouds: sky clear below 12,000 feet AGL
Weather: MIFG  (shallow fog)

Forecast for: LIBR (BRINDISI/CASALE , IT)
Text: TAF LIBR 041700Z 0418/0518 VRB06KT 9999 SCT020
Forecast period: 1800 UTC 04 December 2022 to 1000 UTC 05 December 2022
Forecast type: FROM: standard forecast or significant change
Winds: variable direction winds at 7 MPH (6 knots; 3.1 m/s)
Visibility: 6 or more miles (10+ km)
Ceiling: at least 12,000 feet AGL
Clouds: scattered clouds at 2000 feet AGL
Weather: no significant weather forecast for this period
Text: TEMPO 0420/0506 1200 BCFG BKN008
Forecast period: 2000 UTC 04 December 2022 to 0600 UTC 05 December 2022
Forecast type: TEMPORARY: The following changes expected for less than half the time period
Visibility: 0.75 miles (1.21 km)
Ceiling: 800 feet AGL
Clouds: broken clouds at 800 feet AGL
Weather: BCFG  (patches of fog)
Text: BECMG 0510/0512 18010KT
Forecast period: 1000 to 1800 UTC 05 December 2022
Forecast type: BECOMING: Conditions expected to become as follows by 1200 UTC 05 December 2022
Winds: from the S (180 degrees) at 12 MPH (10 knots; 5.1 m/s)
Visibility: 6 or more miles (10+ km)
Ceiling: at least 12,000 feet AGL
Clouds: scattered clouds at 2000 feet AGL
Weather: no significant weather forecast for this period